Time;durP1;ratioP1;P1;durP2;ratioP2;P2;SDS_P1;SDS_P2;PMS_P1;PMS_P2;Temp;Humidity;BMP_temperature;BMP_pressure;BME280_temperature;BME280_humidity;BME280_pressure;Samples;Min_cycle;Max_cycle;Signal;HPM_P1;HPM_P2
2023/03/20 00:01:55;;;;;;;;;;;9.90;99.90;;;;;;6340521;22;19902;-91
2023/03/20 00:04:21;;;;;;;;;;;10.50;99.90;;;;;;6340843;22;20324;-89
2023/03/20 00:06:47;;;;;;;;;;;10.10;99.90;;;;;;6340086;22;19926;-91
2023/03/20 00:09:16;;;;;;;;;;;9.80;99.90;;;;;;6339633;22;20226;-90
2023/03/20 00:11:49;;;;;;;;;;;10.70;99.90;;;;;;6338930;22;19909;-92
2023/03/20 00:14:17;;;;;;;;;;;9.80;99.90;;;;;;6339011;22;19997;-90
2023/03/20 00:16:44;;;;;;;;;;;9.70;99.90;;;;;;6338894;22;19941;-91
2023/03/20 00:19:22;;;;;;;;;;;10.40;99.90;;;;;;6339016;22;19937;-91
2023/03/20 00:21:48;;;;;;;;;;;9.70;99.90;;;;;;6338925;22;20319;-89
2023/03/20 00:24:23;;;;;;;;;;;10.20;99.90;;;;;;6339332;22;19959;-90
2023/03/20 00:26:49;;;;;;;;;;;9.70;99.90;;;;;;6338274;22;19907;-88
2023/03/20 00:29:21;;;;;;;;;;;10.40;99.90;;;;;;6339330;22;19910;-89
2023/03/20 00:31:46;;;;;;;;;;;9.70;99.90;;;;;;6339086;22;20404;-91
2023/03/20 00:34:16;;;;;;;;;;;9.90;99.90;;;;;;6338347;22;19918;-89
2023/03/20 00:36:47;;;;;;;;;;;9.50;99.90;;;;;;6338447;22;19933;-89
2023/03/20 00:39:19;;;;;;;;;;;9.50;99.90;;;;;;6338715;22;19907;-90
2023/03/20 00:41:52;;;;;;;;;;;9.70;99.90;;;;;;6338300;22;19909;-89
2023/03/20 00:44:30;;;;;;;;;;;9.80;99.90;;;;;;6338821;22;20314;-90
2023/03/20 00:46:58;;;;;;;;;;;9.70;99.90;;;;;;6338500;22;19902;-90
2023/03/20 00:49:25;;;;;;;;;;;10.20;99.90;;;;;;6338922;22;19917;-90
2023/03/20 00:51:51;;;;;;;;;;;10.50;99.90;;;;;;6338651;22;20367;-90
2023/03/20 00:54:47;;;;;;;;;;;10.00;99.90;;;;;;6338236;22;19942;-91
2023/03/20 00:57:27;;;;;;;;;;;9.60;99.90;;;;;;6338861;22;20354;-90
2023/03/20 00:59:52;;;;;;;;;;;9.60;99.90;;;;;;6339213;22;19951;-89
2023/03/20 01:02:18;;;;;;;;;;;10.40;99.90;;;;;;6338138;22;20230;-89
2023/03/20 01:04:44;;;;;;;;;;;10.50;99.90;;;;;;6338368;22;20313;-90
2023/03/20 01:07:22;;;;;;;;;;;10.10;99.90;;;;;;6338400;22;20311;-90
2023/03/20 01:09:48;;;;;;;;;;;9.50;99.90;;;;;;6338633;22;20337;-90
2023/03/20 01:12:13;;;;;;;;;;;9.80;99.90;;;;;;6339075;22;19906;-88
2023/03/20 01:14:53;;;;;;;;;;;9.90;99.90;;;;;;6337178;22;19915;-89
2023/03/20 01:17:23;;;;;;;;;;;9.50;99.90;;;;;;6339437;22;19931;-90
2023/03/20 01:19:48;;;;;;;;;;;10.50;99.90;;;;;;6348193;22;19903;-90
2023/03/20 01:22:20;;;;;;;;;;;10.10;99.90;;;;;;6338857;22;19910;-89
2023/03/20 01:24:46;;;;;;;;;;;9.50;99.90;;;;;;6340267;22;19907;-89
2023/03/20 01:27:12;;;;;;;;;;;10.40;99.90;;;;;;6340974;22;19903;-89
2023/03/20 01:29:45;;;;;;;;;;;10.20;99.90;;;;;;6339390;22;19902;-90
2023/03/20 01:32:15;;;;;;;;;;;9.50;99.90;;;;;;6340025;22;20319;-89
2023/03/20 01:34:43;;;;;;;;;;;9.40;99.90;;;;;;6339119;22;19922;-89
2023/03/20 01:37:23;;;;;;;;;;;9.40;99.90;;;;;;6338857;22;19926;-90
2023/03/20 01:39:52;;;;;;;;;;;9.90;99.90;;;;;;6340158;22;19902;-89
2023/03/20 01:42:17;;;;;;;;;;;9.50;99.90;;;;;;6339800;22;19902;-89
2023/03/20 01:44:43;;;;;;;;;;;9.90;99.90;;;;;;6338835;22;19938;-90
2023/03/20 01:47:15;;;;;;;;;;;10.20;99.90;;;;;;6340544;22;19903;-89
2023/03/20 01:49:59;;;;;;;;;;;9.40;99.90;;;;;;6339100;22;19930;-90
2023/03/20 01:52:25;;;;;;;;;;;9.10;99.90;;;;;;6340081;22;20221;-88
2023/03/20 01:54:50;;;;;;;;;;;10.30;99.90;;;;;;6340127;22;19929;-89
2023/03/20 01:57:23;;;;;;;;;;;9.20;99.90;;;;;;6339346;22;20321;-91
2023/03/20 01:59:50;;;;;;;;;;;9.30;99.90;;;;;;6340362;22;19903;-89
2023/03/20 02:02:18;;;;;;;;;;;10.10;99.90;;;;;;6340351;22;20318;-89
2023/03/20 02:04:45;;;;;;;;;;;9.40;99.90;;;;;;6339199;22;20280;-89
2023/03/20 02:07:12;;;;;;;;;;;9.80;99.90;;;;;;6340618;22;19947;-90
2023/03/20 02:09:45;;;;;;;;;;;9.80;99.90;;;;;;6338990;22;19977;-91
2023/03/20 02:12:17;;;;;;;;;;;8.60;99.90;;;;;;6339392;22;19909;-88
2023/03/20 02:14:44;;;;;;;;;;;9.30;99.90;;;;;;6339864;22;19915;-92
2023/03/20 02:17:13;;;;;;;;;;;10.00;99.90;;;;;;6340196;22;19907;-89
2023/03/20 02:19:50;;;;;;;;;;;8.90;99.90;;;;;;6337291;22;19909;-90
2023/03/20 02:22:28;;;;;;;;;;;9.30;99.90;;;;;;6340124;22;19902;-91
2023/03/20 02:25:14;;;;;;;;;;;8.60;99.90;;;;;;6339440;22;19910;-90
2023/03/20 02:27:51;;;;;;;;;;;9.30;99.90;;;;;;6331016;22;20367;-91
2023/03/20 02:30:20;;;;;;;;;;;9.20;99.90;;;;;;6340121;22;19946;-90
2023/03/20 02:33:06;;;;;;;;;;;9.30;99.90;;;;;;6339801;22;19915;-91
2023/03/20 02:35:42;;;;;;;;;;;9.30;99.90;;;;;;6318370;22;20385;-90
2023/03/20 02:38:30;;;;;;;;;;;9.00;99.90;;;;;;6340556;22;20238;-91
2023/03/20 02:40:55;;;;;;;;;;;9.20;99.90;;;;;;6340509;22;19934;-90
2023/03/20 02:43:27;;;;;;;;;;;9.40;99.90;;;;;;6339864;22;19929;-91
2023/03/20 02:46:15;;;;;;;;;;;8.60;99.90;;;;;;6339595;22;19906;-90
2023/03/20 02:48:55;;;;;;;;;;;9.20;99.90;;;;;;6340055;22;19934;-91
2023/03/20 02:51:43;;;;;;;;;;;8.70;99.90;;;;;;6339924;22;19906;-91
2023/03/20 02:54:21;;;;;;;;;;;9.20;99.90;;;;;;6339466;22;19964;-90
2023/03/20 02:57:01;;;;;;;;;;;9.20;99.90;;;;;;6339780;22;19906;-90
2023/03/20 02:59:32;;;;;;;;;;;9.30;99.90;;;;;;6339816;22;19937;-89
2023/03/20 03:02:17;;;;;;;;;;;9.50;99.90;;;;;;6339987;22;19902;-91
2023/03/20 03:04:49;;;;;;;;;;;9.90;99.90;;;;;;6338457;22;19907;-90
2023/03/20 03:07:23;;;;;;;;;;;9.50;99.90;;;;;;6339452;22;19956;-92
2023/03/20 03:10:01;;;;;;;;;;;9.10;99.90;;;;;;6339593;22;19910;-90
2023/03/20 03:12:28;;;;;;;;;;;10.00;99.90;;;;;;6339076;22;19928;-90
2023/03/20 03:14:57;;;;;;;;;;;9.00;99.90;;;;;;6339477;22;19902;-91
2023/03/20 03:17:24;;;;;;;;;;;9.40;99.90;;;;;;6339328;22;19910;-89
2023/03/20 03:19:54;;;;;;;;;;;9.90;99.90;;;;;;6339090;22;20330;-89
2023/03/20 03:22:23;;;;;;;;;;;9.50;99.90;;;;;;6337835;22;20377;-90
2023/03/20 03:24:52;;;;;;;;;;;8.60;99.90;;;;;;6339780;22;19909;-89
2023/03/20 03:27:26;;;;;;;;;;;9.30;99.90;;;;;;6338855;22;19902;-91
2023/03/20 03:30:00;;;;;;;;;;;8.90;99.90;;;;;;6338722;22;19909;-91
2023/03/20 03:32:26;;;;;;;;;;;9.30;99.90;;;;;;6338876;22;20315;-90
2023/03/20 03:34:52;;;;;;;;;;;9.80;99.90;;;;;;6338549;22;19914;-91
2023/03/20 03:37:23;;;;;;;;;;;9.20;99.90;;;;;;6339412;22;19977;-90
2023/03/20 03:39:51;;;;;;;;;;;8.90;99.90;;;;;;6339528;22;19907;-90
2023/03/20 03:42:20;;;;;;;;;;;9.00;99.90;;;;;;6338887;22;19910;-90
2023/03/20 03:44:50;;;;;;;;;;;9.00;99.90;;;;;;6339159;22;19968;-91
2023/03/20 03:47:27;;;;;;;;;;;9.80;99.90;;;;;;6338981;22;19944;-89
2023/03/20 03:50:08;;;;;;;;;;;9.00;99.90;;;;;;6351411;22;19912;-90
2023/03/20 03:52:34;;;;;;;;;;;9.40;99.90;;;;;;6339118;22;19906;-90
2023/03/20 03:55:05;;;;;;;;;;;9.80;99.90;;;;;;6339210;22;19906;-91
2023/03/20 03:57:33;;;;;;;;;;;8.90;99.90;;;;;;6338843;22;19903;-91
2023/03/20 04:00:00;;;;;;;;;;;8.90;99.90;;;;;;6340236;22;19937;-92
2023/03/20 04:02:26;;;;;;;;;;;8.50;99.90;;;;;;6339557;22;19924;-90
2023/03/20 04:04:52;;;;;;;;;;;9.50;99.90;;;;;;6339094;22;19903;-91
2023/03/20 04:07:18;;;;;;;;;;;8.60;99.90;;;;;;6340468;22;19948;-91
2023/03/20 04:09:50;;;;;;;;;;;9.40;99.90;;;;;;6339987;22;19981;-90
2023/03/20 04:12:42;;;;;;;;;;;9.10;99.90;;;;;;6338507;22;19902;-90
2023/03/20 04:15:14;;;;;;;;;;;8.70;99.90;;;;;;6331461;22;20322;-91
2023/03/20 04:17:43;;;;;;;;;;;8.70;99.90;;;;;;6338517;22;20215;-92
2023/03/20 04:20:15;;;;;;;;;;;8.40;99.90;;;;;;6339023;22;19903;-91
2023/03/20 04:22:43;;;;;;;;;;;8.20;99.90;;;;;;6338824;22;20159;-91
2023/03/20 04:25:14;;;;;;;;;;;8.70;99.90;;;;;;6338554;22;19952;-91
2023/03/20 04:27:39;;;;;;;;;;;9.40;99.90;;;;;;6339133;22;20262;-90
2023/03/20 04:30:05;;;;;;;;;;;9.40;99.90;;;;;;6339573;22;19917;-90
2023/03/20 04:32:47;;;;;;;;;;;8.80;99.90;;;;;;6337803;22;19918;-91
2023/03/20 04:35:13;;;;;;;;;;;8.70;99.90;;;;;;6339239;22;19989;-88
2023/03/20 04:37:41;;;;;;;;;;;9.20;99.90;;;;;;6338800;22;20297;-89
2023/03/20 04:40:30;;;;;;;;;;;10.10;99.90;;;;;;6338037;22;19902;-89
2023/03/20 04:43:11;;;;;;;;;;;8.60;99.90;;;;;;6326040;22;20211;-90
2023/03/20 04:45:36;;;;;;;;;;;8.60;99.90;;;;;;6337350;22;19913;-89
2023/03/20 04:48:02;;;;;;;;;;;9.70;99.90;;;;;;6339021;22;19930;-89
2023/03/20 04:50:27;;;;;;;;;;;8.60;99.90;;;;;;6338641;22;20219;-91
2023/03/20 04:52:53;;;;;;;;;;;9.70;99.90;;;;;;6338241;22;19911;-91
2023/03/20 04:55:18;;;;;;;;;;;9.30;99.90;;;;;;6339464;22;19921;-92
2023/03/20 04:57:44;;;;;;;;;;;9.20;99.90;;;;;;6342137;22;19981;-90
2023/03/20 05:00:13;;;;;;;;;;;9.00;99.90;;;;;;6341286;22;19926;-91
2023/03/20 05:02:45;;;;;;;;;;;8.60;99.90;;;;;;6342041;22;19903;-90
2023/03/20 05:05:19;;;;;;;;;;;8.10;99.90;;;;;;6353068;22;19903;-90
2023/03/20 05:07:48;;;;;;;;;;;8.70;99.90;;;;;;6341687;22;19911;-91
2023/03/20 05:10:17;;;;;;;;;;;8.70;99.90;;;;;;6341978;22;19959;-90
2023/03/20 05:12:45;;;;;;;;;;;8.70;99.90;;;;;;6341812;22;19938;-91
2023/03/20 05:15:14;;;;;;;;;;;8.60;99.90;;;;;;6340852;22;19902;-90
2023/03/20 05:17:46;;;;;;;;;;;9.00;99.90;;;;;;6341773;22;19909;-91
2023/03/20 05:20:11;;;;;;;;;;;8.90;99.90;;;;;;6342280;22;19903;-91
2023/03/20 05:22:37;;;;;;;;;;;8.60;99.90;;;;;;6341494;22;19902;-91
2023/03/20 05:25:02;;;;;;;;;;;8.40;99.90;;;;;;6342210;22;19909;-91
2023/03/20 05:27:28;;;;;;;;;;;8.70;99.90;;;;;;6340877;22;19911;-91
2023/03/20 05:29:53;;;;;;;;;;;9.50;99.90;;;;;;6342307;22;19945;-90
2023/03/20 05:32:19;;;;;;;;;;;9.50;99.90;;;;;;6341454;22;19915;-91
2023/03/20 05:34:45;;;;;;;;;;;8.70;99.90;;;;;;6340348;22;19911;-92
2023/03/20 05:37:23;;;;;;;;;;;9.00;99.90;;;;;;6342219;22;19902;-91
2023/03/20 05:39:48;;;;;;;;;;;9.00;99.90;;;;;;6341207;22;19907;-92
2023/03/20 05:42:14;;;;;;;;;;;9.40;99.90;;;;;;6340666;22;20341;-90
2023/03/20 05:44:45;;;;;;;;;;;9.00;99.90;;;;;;6341152;22;19909;-90
2023/03/20 05:47:16;;;;;;;;;;;9.00;99.90;;;;;;6342094;22;19909;-91
2023/03/20 05:49:48;;;;;;;;;;;8.60;99.90;;;;;;6340499;22;19926;-92
2023/03/20 05:52:16;;;;;;;;;;;8.50;99.90;;;;;;6342078;22;19906;-91
2023/03/20 05:54:42;;;;;;;;;;;8.60;99.90;;;;;;6339981;22;20322;-92
2023/03/20 05:57:10;;;;;;;;;;;9.20;99.90;;;;;;6340965;22;19914;-90
2023/03/20 05:59:36;;;;;;;;;;;8.20;99.90;;;;;;6341537;22;19902;-90
2023/03/20 06:02:01;;;;;;;;;;;9.20;99.90;;;;;;6342070;22;19948;-92
2023/03/20 06:04:27;;;;;;;;;;;8.60;99.90;;;;;;6341317;22;20326;-92
2023/03/20 06:06:52;;;;;;;;;;;8.70;99.90;;;;;;6342283;22;19941;-90
2023/03/20 06:09:20;;;;;;;;;;;9.30;99.90;;;;;;6340079;22;19977;-90
2023/03/20 06:11:48;;;;;;;;;;;8.70;99.90;;;;;;6339151;22;20057;-91
2023/03/20 06:14:16;;;;;;;;;;;9.10;99.90;;;;;;6339151;22;19918;-90
2023/03/20 06:16:48;;;;;;;;;;;9.40;99.90;;;;;;6339104;22;19907;-90
2023/03/20 06:19:17;;;;;;;;;;;8.60;99.90;;;;;;6346325;22;19906;-91
2023/03/20 06:21:45;;;;;;;;;;;8.60;99.90;;;;;;6342136;22;19913;-91
2023/03/20 06:24:11;;;;;;;;;;;8.60;99.90;;;;;;6338923;22;19948;-91
2023/03/20 06:26:36;;;;;;;;;;;9.30;99.90;;;;;;6339556;22;19903;-93
2023/03/20 06:29:02;;;;;;;;;;;9.60;99.90;;;;;;6339596;22;19910;-91
2023/03/20 06:31:27;;;;;;;;;;;9.30;99.90;;;;;;6338052;22;19918;-92
2023/03/20 06:34:11;;;;;;;;;;;8.70;99.90;;;;;;6340008;22;19928;-91
2023/03/20 06:36:37;;;;;;;;;;;8.40;99.90;;;;;;6339008;22;19938;-90
2023/03/20 06:39:02;;;;;;;;;;;9.00;99.90;;;;;;6338880;22;19902;-90
2023/03/20 06:41:28;;;;;;;;;;;8.60;99.90;;;;;;6339901;22;19906;-91
2023/03/20 06:43:54;;;;;;;;;;;9.30;99.90;;;;;;6340329;22;19911;-89
2023/03/20 06:46:20;;;;;;;;;;;8.50;99.90;;;;;;6339622;22;19903;-90
2023/03/20 06:48:48;;;;;;;;;;;8.50;99.90;;;;;;6340193;22;19913;-91
2023/03/20 06:51:14;;;;;;;;;;;8.50;99.90;;;;;;6340428;22;19914;-90
2023/03/20 06:53:45;;;;;;;;;;;9.50;99.90;;;;;;6336671;22;19911;-89
2023/03/20 06:56:23;;;;;;;;;;;8.00;99.90;;;;;;6340217;22;19907;-90
2023/03/20 06:58:49;;;;;;;;;;;7.90;99.90;;;;;;6339444;22;19909;-89
2023/03/20 07:01:16;;;;;;;;;;;9.60;99.90;;;;;;6340195;22;19903;-89
2023/03/20 07:03:41;;;;;;;;;;;9.40;99.90;;;;;;6338856;22;19906;-91
2023/03/20 07:06:20;;;;;;;;;;;7.90;99.90;;;;;;6339300;22;19907;-89
2023/03/20 07:08:46;;;;;;;;;;;8.70;99.90;;;;;;6339463;22;19932;-91
2023/03/20 07:11:14;;;;;;;;;;;9.10;99.90;;;;;;6339921;22;19903;-90
2023/03/20 07:13:40;;;;;;;;;;;8.50;99.90;;;;;;6338577;22;19911;-89
2023/03/20 07:16:06;;;;;;;;;;;9.80;99.90;;;;;;6339568;22;20259;-90
2023/03/20 07:18:31;;;;;;;;;;;8.50;99.90;;;;;;6338905;22;19902;-89
2023/03/20 07:21:04;;;;;;;;;;;9.00;99.90;;;;;;6338677;22;19909;-90
2023/03/20 07:23:30;;;;;;;;;;;8.70;99.90;;;;;;6339012;22;20334;-91
2023/03/20 07:25:56;;;;;;;;;;;9.30;99.90;;;;;;6339538;22;19977;-90
2023/03/20 07:28:22;;;;;;;;;;;8.70;99.90;;;;;;6338510;22;19902;-91
2023/03/20 07:30:48;;;;;;;;;;;9.20;99.90;;;;;;6339238;22;19906;-91
2023/03/20 07:33:22;;;;;;;;;;;8.80;99.90;;;;;;6340830;22;19968;-91
2023/03/20 07:35:52;;;;;;;;;;;8.70;99.90;;;;;;6346888;22;19956;-90
2023/03/20 07:38:17;;;;;;;;;;;8.80;99.90;;;;;;6339352;22;19907;-90
2023/03/20 07:40:43;;;;;;;;;;;9.50;99.90;;;;;;6339250;22;19917;-91
2023/03/20 07:43:11;;;;;;;;;;;9.40;99.90;;;;;;6338748;22;19928;-90
2023/03/20 07:45:37;;;;;;;;;;;8.70;99.90;;;;;;6339261;22;19903;-90
2023/03/20 07:48:02;;;;;;;;;;;9.30;99.90;;;;;;6338419;22;19903;-90
2023/03/20 07:50:27;;;;;;;;;;;8.70;99.90;;;;;;6339066;22;19903;-91
2023/03/20 07:52:53;;;;;;;;;;;9.40;99.90;;;;;;6339249;22;19907;-91
2023/03/20 07:55:18;;;;;;;;;;;9.10;99.90;;;;;;6338414;22;20258;-91
2023/03/20 07:57:44;;;;;;;;;;;9.00;99.90;;;;;;6338748;22;19981;-91
2023/03/20 08:00:10;;;;;;;;;;;7.70;99.90;;;;;;6339204;22;19903;-90
2023/03/20 08:02:35;;;;;;;;;;;8.80;99.90;;;;;;6338688;22;19926;-90
2023/03/20 08:05:04;;;;;;;;;;;9.50;99.90;;;;;;6339945;22;19903;-90
2023/03/20 08:07:30;;;;;;;;;;;9.50;99.90;;;;;;6338950;22;20362;-90
2023/03/20 08:09:55;;;;;;;;;;;8.80;99.90;;;;;;6338517;22;19941;-90
2023/03/20 08:12:23;;;;;;;;;;;8.70;99.90;;;;;;6338088;22;19909;-90
2023/03/20 08:14:49;;;;;;;;;;;8.80;99.90;;;;;;6339014;22;19911;-90
2023/03/20 08:17:14;;;;;;;;;;;9.40;99.90;;;;;;6338098;22;19989;-91
2023/03/20 08:19:40;;;;;;;;;;;8.50;99.90;;;;;;6338704;22;19951;-87
2023/03/20 08:22:06;;;;;;;;;;;10.20;99.90;;;;;;6338653;22;19906;-91
2023/03/20 08:24:31;;;;;;;;;;;8.90;99.90;;;;;;6338399;22;19906;-90
2023/03/20 08:26:57;;;;;;;;;;;8.90;99.90;;;;;;6339347;22;20322;-92
2023/03/20 08:29:22;;;;;;;;;;;9.60;99.90;;;;;;6338843;22;19910;-91
2023/03/20 08:31:48;;;;;;;;;;;9.60;99.90;;;;;;6337480;22;19922;-90
2023/03/20 08:34:14;;;;;;;;;;;8.80;99.90;;;;;;6339173;22;20261;-91
2023/03/20 08:36:48;;;;;;;;;;;9.70;99.90;;;;;;6338703;22;19978;-91
2023/03/20 08:39:16;;;;;;;;;;;9.70;99.90;;;;;;6338285;22;19907;-88
2023/03/20 08:41:44;;;;;;;;;;;8.90;99.90;;;;;;6336449;22;20378;-90
2023/03/20 08:44:19;;;;;;;;;;;8.90;99.90;;;;;;6337827;22;19936;-90
2023/03/20 08:46:45;;;;;;;;;;;8.80;99.90;;;;;;6337684;22;19902;-87
2023/03/20 08:49:14;;;;;;;;;;;9.70;99.90;;;;;;6342315;22;20234;-89
2023/03/20 08:51:44;;;;;;;;;;;8.50;99.90;;;;;;6339002;22;19937;-88
2023/03/20 08:54:14;;;;;;;;;;;8.80;99.90;;;;;;6337742;22;19910;-89
2023/03/20 08:56:45;;;;;;;;;;;8.80;99.90;;;;;;6338047;22;20319;-89
2023/03/20 08:59:20;;;;;;;;;;;8.70;99.90;;;;;;6337481;22;19909;-88
2023/03/20 09:01:47;;;;;;;;;;;8.50;99.90;;;;;;6338675;22;19922;-89
2023/03/20 09:04:16;;;;;;;;;;;9.70;99.90;;;;;;6337922;22;19917;-89
2023/03/20 09:06:41;;;;;;;;;;;8.90;99.90;;;;;;6337187;22;19902;-89
2023/03/20 09:09:08;;;;;;;;;;;8.60;99.90;;;;;;6338551;22;20318;-89
2023/03/20 09:11:34;;;;;;;;;;;8.80;99.90;;;;;;6337720;22;19913;-88
2023/03/20 09:13:59;;;;;;;;;;;8.70;99.90;;;;;;6337228;22;19918;-89
2023/03/20 09:16:25;;;;;;;;;;;9.60;99.90;;;;;;6337194;22;19948;-88
2023/03/20 09:18:51;;;;;;;;;;;9.60;99.90;;;;;;6337932;22;20225;-87
2023/03/20 09:21:16;;;;;;;;;;;9.50;99.90;;;;;;6337941;22;20325;-89
2023/03/20 09:23:48;;;;;;;;;;;9.40;99.90;;;;;;6337472;22;19981;-89
2023/03/20 09:26:16;;;;;;;;;;;8.80;99.90;;;;;;6338469;22;19907;-89
2023/03/20 09:28:41;;;;;;;;;;;8.80;99.90;;;;;;6337199;22;19907;-89
2023/03/20 09:31:07;;;;;;;;;;;9.50;99.90;;;;;;6337762;22;19982;-88
2023/03/20 09:33:32;;;;;;;;;;;8.50;99.90;;;;;;6337113;22;19910;-88
2023/03/20 09:35:58;;;;;;;;;;;8.70;99.90;;;;;;6337971;22;19902;-88
2023/03/20 09:38:23;;;;;;;;;;;9.90;99.90;;;;;;6337625;22;19974;-88
2023/03/20 09:40:55;;;;;;;;;;;9.60;99.90;;;;;;6337283;22;20000;-89
2023/03/20 09:43:30;;;;;;;;;;;9.00;99.90;;;;;;6338445;22;19926;-89
2023/03/20 09:46:17;;;;;;;;;;;9.00;99.90;;;;;;6339479;22;20363;-89
2023/03/20 09:48:56;;;;;;;;;;;9.00;99.90;;;;;;6338179;22;20326;-88
2023/03/20 09:51:35;;;;;;;;;;;8.90;99.90;;;;;;6335869;22;20013;-88
2023/03/20 09:54:27;;;;;;;;;;;9.00;99.90;;;;;;6338313;22;20401;-88
2023/03/20 09:56:53;;;;;;;;;;;9.00;99.90;;;;;;6338361;22;20219;-88
2023/03/20 09:59:23;;;;;;;;;;;9.80;99.90;;;;;;6339487;22;19922;-91
2023/03/20 10:01:51;;;;;;;;;;;8.90;99.90;;;;;;6342008;22;19922;-95
2023/03/20 10:04:17;;;;;;;;;;;9.90;99.90;;;;;;6351198;22;19912;-91
2023/03/20 10:06:45;;;;;;;;;;;9.70;99.90;;;;;;6346679;22;20315;-93
2023/03/20 10:09:21;;;;;;;;;;;9.60;99.90;;;;;;6339454;22;19906;-93
2023/03/20 10:11:59;;;;;;;;;;;9.70;99.90;;;;;;6339050;22;20323;-91
2023/03/20 10:14:25;;;;;;;;;;;9.10;99.90;;;;;;6341267;22;19910;-93
2023/03/20 10:17:02;;;;;;;;;;;9.10;99.90;;;;;;6339548;22;20311;-91
2023/03/20 10:19:55;;;;;;;;;;;9.20;99.90;;;;;;6340684;22;20368;-90
2023/03/20 10:22:42;;;;;;;;;;;9.20;99.90;;;;;;6340371;22;19903;-93
2023/03/20 10:25:26;;;;;;;;;;;9.20;99.90;;;;;;6341404;22;19902;-92
2023/03/20 10:27:58;;;;;;;;;;;9.20;99.90;;;;;;6340362;22;19916;-92
2023/03/20 10:30:40;;;;;;;;;;;9.20;99.90;;;;;;6339959;22;19947;-94
2023/03/20 10:33:29;;;;;;;;;;;9.20;99.90;;;;;;6340758;22;20303;-93
2023/03/20 10:36:06;;;;;;;;;;;9.20;99.90;;;;;;6339555;22;19903;-94
2023/03/20 10:38:45;;;;;;;;;;;;;;;;;;;;;
2023/03/20 10:41:22;;;;;;;;;;;9.20;99.90;;;;;;6316305;22;19990;-96
2023/03/20 10:43:55;;;;;;;;;;;9.90;99.90;;;;;;6339564;22;20024;-95
2023/03/20 10:46:26;;;;;;;;;;;9.20;99.90;;;;;;6339967;22;19903;-94
2023/03/20 10:48:57;;;;;;;;;;;9.20;99.90;;;;;;6339977;22;19937;-93
2023/03/20 10:51:46;;;;;;;;;;;10.20;99.90;;;;;;6339724;22;19934;-93
2023/03/20 10:54:21;;;;;;;;;;;9.30;99.90;;;;;;6339948;22;19910;-93
2023/03/20 10:56:48;;;;;;;;;;;9.40;99.90;;;;;;6340409;22;19951;-94
2023/03/20 10:59:21;;;;;;;;;;;9.30;99.90;;;;;;6339434;22;20367;-94
2023/03/20 11:01:46;;;;;;;;;;;9.20;99.90;;;;;;6340745;22;19910;-94
2023/03/20 11:04:18;;;;;;;;;;;9.70;99.90;;;;;;6339870;22;20281;-94
2023/03/20 11:07:02;;;;;;;;;;;9.40;99.90;;;;;;6338656;22;19913;-94
2023/03/20 11:09:30;;;;;;;;;;;9.40;99.90;;;;;;6340154;22;19903;-92
2023/03/20 11:11:56;;;;;;;;;;;9.40;99.90;;;;;;6339082;22;20033;-93
2023/03/20 11:14:23;;;;;;;;;;;10.40;99.90;;;;;;6340681;22;19911;-95
2023/03/20 11:16:50;;;;;;;;;;;9.50;99.90;;;;;;6342095;22;20314;-95
2023/03/20 11:19:21;;;;;;;;;;;9.50;99.90;;;;;;6344339;22;19906;-93
2023/03/20 11:21:55;;;;;;;;;;;9.50;99.90;;;;;;6344881;22;19907;-94
2023/03/20 11:24:23;;;;;;;;;;;9.50;99.90;;;;;;6340815;22;20246;-92
2023/03/20 11:27:02;;;;;;;;;;;9.90;99.90;;;;;;6339811;22;19907;-92
2023/03/20 11:29:33;;;;;;;;;;;10.50;99.90;;;;;;6340404;22;19903;-94
2023/03/20 11:32:04;;;;;;;;;;;9.50;99.90;;;;;;6339738;22;20331;-93
2023/03/20 11:34:35;;;;;;;;;;;9.50;99.90;;;;;;6339189;22;20319;-93
2023/03/20 11:37:04;;;;;;;;;;;9.50;99.90;;;;;;6340127;22;19938;-93
2023/03/20 11:39:50;;;;;;;;;;;9.70;99.90;;;;;;6341449;22;19947;-93
2023/03/20 11:42:23;;;;;;;;;;;8.90;99.90;;;;;;6342186;22;20368;-93
2023/03/20 11:44:59;;;;;;;;;;;9.60;99.90;;;;;;6339689;22;19948;-93
2023/03/20 11:47:26;;;;;;;;;;;9.60;99.90;;;;;;6339627;22;19964;-92
2023/03/20 11:49:55;;;;;;;;;;;9.50;99.90;;;;;;6340140;22;20375;-92
2023/03/20 11:52:41;;;;;;;;;;;9.60;99.90;;;;;;6339951;22;19997;-92
2023/03/20 11:55:21;;;;;;;;;;;9.60;99.90;;;;;;6338066;22;20315;-92
2023/03/20 11:57:47;;;;;;;;;;;9.60;99.90;;;;;;6339728;22;19907;-93
2023/03/20 12:00:16;;;;;;;;;;;10.30;99.90;;;;;;6340502;22;19937;-92
2023/03/20 12:02:42;;;;;;;;;;;9.60;99.90;;;;;;6338759;22;19903;-93
2023/03/20 12:05:26;;;;;;;;;;;10.60;99.90;;;;;;6339374;22;19948;-94
2023/03/20 12:07:56;;;;;;;;;;;9.70;99.90;;;;;;6340529;22;19909;-92
2023/03/20 12:10:24;;;;;;;;;;;9.70;99.90;;;;;;6336961;22;19947;-93
2023/03/20 12:12:53;;;;;;;;;;;11.00;99.90;;;;;;6340228;22;19991;-93
2023/03/20 12:15:24;;;;;;;;;;;9.50;99.90;;;;;;6339128;22;19902;-91
2023/03/20 12:17:53;;;;;;;;;;;9.70;99.90;;;;;;6338921;22;19934;-91
2023/03/20 12:20:23;;;;;;;;;;;9.70;99.90;;;;;;6339746;22;19938;-93
2023/03/20 12:22:58;;;;;;;;;;;9.80;99.90;;;;;;6338148;22;20282;-93
2023/03/20 12:25:25;;;;;;;;;;;9.80;99.90;;;;;;6338899;22;20354;-92
2023/03/20 12:28:13;;;;;;;;;;;9.80;99.90;;;;;;6340178;22;19977;-93
2023/03/20 12:30:57;;;;;;;;;;;9.70;99.90;;;;;;6318024;22;19903;-94
2023/03/20 12:33:23;;;;;;;;;;;9.80;99.90;;;;;;6339452;22;20269;-92
2023/03/20 12:35:49;;;;;;;;;;;10.10;99.90;;;;;;6352935;22;19926;-92
2023/03/20 12:38:29;;;;;;;;;;;9.70;99.90;;;;;;6338253;22;19906;-93
2023/03/20 12:41:01;;;;;;;;;;;9.70;99.90;;;;;;6338930;22;19918;-92
2023/03/20 12:43:30;;;;;;;;;;;9.70;99.90;;;;;;6338209;22;19907;-93
2023/03/20 12:46:08;;;;;;;;;;;9.70;99.90;;;;;;6339001;22;19952;-93
2023/03/20 12:48:39;;;;;;;;;;;9.70;99.90;;;;;;6339014;22;19906;-92
2023/03/20 12:51:08;;;;;;;;;;;9.70;99.90;;;;;;6338595;22;19902;-91
2023/03/20 12:53:39;;;;;;;;;;;9.70;99.90;;;;;;6339091;22;19968;-91
2023/03/20 12:56:10;;;;;;;;;;;9.60;99.90;;;;;;6339089;22;19930;-91
2023/03/20 12:58:56;;;;;;;;;;;9.70;99.90;;;;;;6338738;22;19903;-91
2023/03/20 13:01:21;;;;;;;;;;;9.70;99.90;;;;;;6312067;22;19978;-92
2023/03/20 13:04:05;;;;;;;;;;;9.60;99.90;;;;;;6339477;22;19903;-90
2023/03/20 13:06:31;;;;;;;;;;;9.60;99.90;;;;;;6339032;22;20364;-91
2023/03/20 13:09:07;;;;;;;;;;;9.70;99.90;;;;;;6339455;22;19903;-91
2023/03/20 13:11:32;;;;;;;;;;;9.70;99.90;;;;;;6338163;22;19977;-91
2023/03/20 13:14:11;;;;;;;;;;;9.60;99.90;;;;;;6339679;22;19957;-90
2023/03/20 13:16:56;;;;;;;;;;;9.60;99.90;;;;;;6339470;22;20371;-91
2023/03/20 13:19:22;;;;;;;;;;;9.60;99.90;;;;;;6341199;22;19903;-93
2023/03/20 13:22:08;;;;;;;;;;;9.60;99.90;;;;;;6341513;22;19910;-92
2023/03/20 13:24:42;;;;;;;;;;;9.50;99.90;;;;;;6339774;22;19959;-90
2023/03/20 13:27:13;;;;;;;;;;;9.60;99.90;;;;;;6340187;22;19986;-91
2023/03/20 13:30:08;;;;;;;;;;;10.50;99.90;;;;;;6340886;22;19925;-91
2023/03/20 13:32:42;;;;;;;;;;;9.50;99.90;;;;;;6280958;22;19914;-92
2023/03/20 13:35:22;;;;;;;;;;;9.50;99.90;;;;;;6310094;22;19949;-91
2023/03/20 13:37:49;;;;;;;;;;;9.50;99.90;;;;;;6309844;22;19939;-90
2023/03/20 13:40:23;;;;;;;;;;;9.50;99.90;;;;;;6308662;22;19909;-91
2023/03/20 13:42:53;;;;;;;;;;;9.50;99.90;;;;;;6309918;22;19926;-91
2023/03/20 13:45:27;;;;;;;;;;;9.50;99.90;;;;;;6310005;22;19902;-92
2023/03/20 13:47:53;;;;;;;;;;;9.40;99.90;;;;;;6306766;22;19926;-92
2023/03/20 13:50:30;;;;;;;;;;;9.90;99.90;;;;;;6312630;22;19957;-91
2023/03/20 13:53:10;;;;;;;;;;;9.40;99.90;;;;;;6313616;22;20239;-93
2023/03/20 13:55:45;;;;;;;;;;;9.50;99.90;;;;;;6308874;22;19933;-91
2023/03/20 13:58:22;;;;;;;;;;;9.40;99.90;;;;;;6309774;22;19949;-92
2023/03/20 14:00:50;;;;;;;;;;;9.50;99.90;;;;;;6304140;22;19929;-91
2023/03/20 14:03:18;;;;;;;;;;;9.50;99.90;;;;;;6309346;22;19903;-92
2023/03/20 14:05:44;;;;;;;;;;;9.50;99.90;;;;;;6309346;22;19910;-92
2023/03/20 14:08:32;;;;;;;;;;;9.50;99.90;;;;;;6308282;22;19907;-91
2023/03/20 14:11:09;;;;;;;;;;;9.50;99.90;;;;;;6311409;22;19930;-91
2023/03/20 14:13:35;;;;;;;;;;;9.60;99.90;;;;;;6309139;22;19911;-91
2023/03/20 14:16:07;;;;;;;;;;;10.30;99.90;;;;;;6309147;22;20338;-90
2023/03/20 14:18:32;;;;;;;;;;;9.60;99.90;;;;;;6307925;22;19910;-91
2023/03/20 14:21:03;;;;;;;;;;;9.50;99.90;;;;;;6309579;22;19943;-92
2023/03/20 14:23:34;;;;;;;;;;;9.50;99.90;;;;;;6308281;22;19903;-90
2023/03/20 14:26:03;;;;;;;;;;;9.70;99.90;;;;;;6309391;22;20311;-90
2023/03/20 14:28:32;;;;;;;;;;;9.70;99.90;;;;;;6308741;22;19903;-92
2023/03/20 14:31:17;;;;;;;;;;;9.50;99.90;;;;;;6311877;22;19919;-92
2023/03/20 14:33:43;;;;;;;;;;;9.50;99.90;;;;;;6340574;22;19911;-93
2023/03/20 14:36:25;;;;;;;;;;;9.50;99.90;;;;;;6340466;22;19990;-91
2023/03/20 14:39:01;;;;;;;;;;;9.50;99.90;;;;;;6340338;22;19902;-91
2023/03/20 14:41:40;;;;;;;;;;;9.50;99.90;;;;;;6340644;22;20248;-91
2023/03/20 14:44:14;;;;;;;;;;;9.60;99.90;;;;;;6339858;22;19909;-91
2023/03/20 14:46:43;;;;;;;;;;;9.60;99.90;;;;;;6341011;22;19910;-92
2023/03/20 14:49:27;;;;;;;;;;;9.60;99.90;;;;;;6341135;22;19930;-91
2023/03/20 14:51:55;;;;;;;;;;;9.60;99.90;;;;;;6339939;22;19902;-91